sensor_id;sensor_type;location;lat;lon;timestamp;P1;durP1;ratioP1;P2;durP2;ratioP2
6828;SDS011;17930;48.592;8.868;2023-02-28T00:00:18;3.67;;;1.98;;
6828;SDS011;17930;48.592;8.868;2023-02-28T00:02:45;2.58;;;1.63;;
6828;SDS011;17930;48.592;8.868;2023-02-28T00:05:14;3.53;;;1.67;;
6828;SDS011;17930;48.592;8.868;2023-02-28T00:07:45;3.88;;;1.70;;
6828;SDS011;17930;48.592;8.868;2023-02-28T00:10:12;3.20;;;1.50;;
6828;SDS011;17930;48.592;8.868;2023-02-28T00:12:40;2.78;;;1.50;;
6828;SDS011;17930;48.592;8.868;2023-02-28T00:15:08;2.38;;;1.60;;
6828;SDS011;17930;48.592;8.868;2023-02-28T00:17:36;2.92;;;1.50;;
6828;SDS011;17930;48.592;8.868;2023-02-28T00:20:04;2.08;;;1.40;;
6828;SDS011;17930;48.592;8.868;2023-02-28T00:22:33;2.47;;;1.55;;
6828;SDS011;17930;48.592;8.868;2023-02-28T00:25:01;4.65;;;1.80;;
6828;SDS011;17930;48.592;8.868;2023-02-28T00:27:28;2.03;;;1.40;;
6828;SDS011;17930;48.592;8.868;2023-02-28T00:29:55;3.92;;;1.77;;
6828;SDS011;17930;48.592;8.868;2023-02-28T00:32:22;2.72;;;1.50;;
6828;SDS011;17930;48.592;8.868;2023-02-28T00:34:48;1.95;;;1.38;;
6828;SDS011;17930;48.592;8.868;2023-02-28T00:37:15;2.85;;;1.73;;
6828;SDS011;17930;48.592;8.868;2023-02-28T00:39:42;2.95;;;1.67;;
6828;SDS011;17930;48.592;8.868;2023-02-28T00:42:10;2.60;;;1.40;;
6828;SDS011;17930;48.592;8.868;2023-02-28T00:44:37;2.67;;;1.50;;
6828;SDS011;17930;48.592;8.868;2023-02-28T00:47:03;2.42;;;1.50;;
6828;SDS011;17930;48.592;8.868;2023-02-28T00:49:30;2.95;;;1.63;;
6828;SDS011;17930;48.592;8.868;2023-02-28T00:51:57;1.98;;;1.50;;
6828;SDS011;17930;48.592;8.868;2023-02-28T00:54:23;3.75;;;1.98;;
6828;SDS011;17930;48.592;8.868;2023-02-28T00:56:50;2.17;;;1.60;;
6828;SDS011;17930;48.592;8.868;2023-02-28T00:59:18;1.83;;;1.40;;
6828;SDS011;17930;48.592;8.868;2023-02-28T01:01:45;2.15;;;1.48;;
6828;SDS011;17930;48.592;8.868;2023-02-28T01:04:12;2.80;;;2.00;;
6828;SDS011;17930;48.592;8.868;2023-02-28T01:06:39;5.40;;;1.50;;
6828;SDS011;17930;48.592;8.868;2023-02-28T01:09:06;2.25;;;1.50;;
6828;SDS011;17930;48.592;8.868;2023-02-28T01:11:34;3.55;;;1.85;;
6828;SDS011;17930;48.592;8.868;2023-02-28T01:14:01;2.60;;;1.70;;
6828;SDS011;17930;48.592;8.868;2023-02-28T01:16:30;2.22;;;1.67;;
6828;SDS011;17930;48.592;8.868;2023-02-28T01:18:57;4.03;;;1.70;;
6828;SDS011;17930;48.592;8.868;2023-02-28T01:21:23;1.85;;;1.25;;
6828;SDS011;17930;48.592;8.868;2023-02-28T01:23:50;3.88;;;1.70;;
6828;SDS011;17930;48.592;8.868;2023-02-28T01:26:17;2.97;;;1.45;;
6828;SDS011;17930;48.592;8.868;2023-02-28T01:28:46;2.47;;;1.35;;
6828;SDS011;17930;48.592;8.868;2023-02-28T01:31:13;1.65;;;1.50;;
6828;SDS011;17930;48.592;8.868;2023-02-28T01:33:41;3.53;;;1.50;;
6828;SDS011;17930;48.592;8.868;2023-02-28T01:36:09;2.78;;;1.48;;
6828;SDS011;17930;48.592;8.868;2023-02-28T01:38:38;2.72;;;2.00;;
6828;SDS011;17930;48.592;8.868;2023-02-28T01:41:04;3.13;;;1.70;;
6828;SDS011;17930;48.592;8.868;2023-02-28T01:43:39;3.92;;;1.83;;
6828;SDS011;17930;48.592;8.868;2023-02-28T01:46:19;2.25;;;1.60;;
6828;SDS011;17930;48.592;8.868;2023-02-28T01:48:48;2.60;;;1.98;;
6828;SDS011;17930;48.592;8.868;2023-02-28T01:51:19;3.20;;;1.70;;
6828;SDS011;17930;48.592;8.868;2023-02-28T01:53:49;4.90;;;1.88;;
6828;SDS011;17930;48.592;8.868;2023-02-28T01:56:19;3.03;;;1.92;;
6828;SDS011;17930;48.592;8.868;2023-02-28T01:58:50;2.90;;;1.55;;
6828;SDS011;17930;48.592;8.868;2023-02-28T02:01:19;2.50;;;1.52;;
6828;SDS011;17930;48.592;8.868;2023-02-28T02:03:48;4.70;;;1.83;;
6828;SDS011;17930;48.592;8.868;2023-02-28T02:06:20;3.83;;;1.80;;
6828;SDS011;17930;48.592;8.868;2023-02-28T02:08:48;3.30;;;1.77;;
6828;SDS011;17930;48.592;8.868;2023-02-28T02:11:16;3.70;;;1.90;;
6828;SDS011;17930;48.592;8.868;2023-02-28T02:13:52;5.43;;;1.85;;
6828;SDS011;17930;48.592;8.868;2023-02-28T02:16:34;3.40;;;1.60;;
6828;SDS011;17930;48.592;8.868;2023-02-28T02:19:15;2.20;;;1.70;;
6828;SDS011;17930;48.592;8.868;2023-02-28T02:22:19;3.13;;;1.65;;
6828;SDS011;17930;48.592;8.868;2023-02-28T02:25:15;3.33;;;2.30;;
6828;SDS011;17930;48.592;8.868;2023-02-28T02:28:05;2.63;;;1.85;;
6828;SDS011;17930;48.592;8.868;2023-02-28T02:30:59;3.40;;;2.00;;
6828;SDS011;17930;48.592;8.868;2023-02-28T02:36:44;3.20;;;2.08;;
6828;SDS011;17930;48.592;8.868;2023-02-28T02:39:16;4.10;;;2.40;;
6828;SDS011;17930;48.592;8.868;2023-02-28T02:41:49;2.88;;;1.75;;
6828;SDS011;17930;48.592;8.868;2023-02-28T02:44:20;3.70;;;1.80;;
6828;SDS011;17930;48.592;8.868;2023-02-28T02:46:51;1.65;;;1.50;;
6828;SDS011;17930;48.592;8.868;2023-02-28T02:49:24;3.17;;;1.98;;
6828;SDS011;17930;48.592;8.868;2023-02-28T02:51:54;3.85;;;2.03;;
6828;SDS011;17930;48.592;8.868;2023-02-28T02:54:24;2.63;;;1.67;;
6828;SDS011;17930;48.592;8.868;2023-02-28T02:56:54;2.22;;;1.75;;
6828;SDS011;17930;48.592;8.868;2023-02-28T02:59:24;3.97;;;1.88;;
6828;SDS011;17930;48.592;8.868;2023-02-28T03:01:54;2.40;;;1.63;;
6828;SDS011;17930;48.592;8.868;2023-02-28T03:04:25;4.20;;;2.53;;
6828;SDS011;17930;48.592;8.868;2023-02-28T03:06:55;4.15;;;2.03;;
6828;SDS011;17930;48.592;8.868;2023-02-28T03:09:22;2.88;;;1.95;;
6828;SDS011;17930;48.592;8.868;2023-02-28T03:11:49;4.38;;;1.90;;
6828;SDS011;17930;48.592;8.868;2023-02-28T03:17:21;3.72;;;2.47;;
6828;SDS011;17930;48.592;8.868;2023-02-28T03:19:59;4.07;;;2.58;;
6828;SDS011;17930;48.592;8.868;2023-02-28T03:22:40;3.30;;;2.05;;
6828;SDS011;17930;48.592;8.868;2023-02-28T03:25:30;3.40;;;1.83;;
6828;SDS011;17930;48.592;8.868;2023-02-28T03:28:05;5.18;;;2.38;;
6828;SDS011;17930;48.592;8.868;2023-02-28T03:30:39;3.53;;;2.05;;
6828;SDS011;17930;48.592;8.868;2023-02-28T03:33:13;5.65;;;2.78;;
6828;SDS011;17930;48.592;8.868;2023-02-28T03:35:45;4.72;;;2.25;;
6828;SDS011;17930;48.592;8.868;2023-02-28T03:38:16;4.45;;;2.35;;
6828;SDS011;17930;48.592;8.868;2023-02-28T03:40:47;3.33;;;2.35;;
6828;SDS011;17930;48.592;8.868;2023-02-28T03:43:18;3.08;;;1.95;;
6828;SDS011;17930;48.592;8.868;2023-02-28T03:45:48;3.38;;;2.40;;
6828;SDS011;17930;48.592;8.868;2023-02-28T03:48:19;2.90;;;2.08;;
6828;SDS011;17930;48.592;8.868;2023-02-28T03:50:53;3.88;;;2.75;;
6828;SDS011;17930;48.592;8.868;2023-02-28T03:53:24;5.97;;;2.97;;
6828;SDS011;17930;48.592;8.868;2023-02-28T03:55:55;4.90;;;2.42;;
6828;SDS011;17930;48.592;8.868;2023-02-28T03:58:25;4.00;;;2.10;;
6828;SDS011;17930;48.592;8.868;2023-02-28T04:00:57;3.95;;;2.30;;
6828;SDS011;17930;48.592;8.868;2023-02-28T04:03:33;3.78;;;2.55;;
6828;SDS011;17930;48.592;8.868;2023-02-28T04:06:03;4.90;;;2.42;;
6828;SDS011;17930;48.592;8.868;2023-02-28T04:08:31;4.47;;;2.83;;
6828;SDS011;17930;48.592;8.868;2023-02-28T04:11:00;3.70;;;2.90;;
6828;SDS011;17930;48.592;8.868;2023-02-28T04:13:31;5.20;;;2.58;;
6828;SDS011;17930;48.592;8.868;2023-02-28T04:15:57;3.90;;;2.97;;
6828;SDS011;17930;48.592;8.868;2023-02-28T04:18:24;4.90;;;2.55;;
6828;SDS011;17930;48.592;8.868;2023-02-28T04:20:51;5.13;;;2.75;;
6828;SDS011;17930;48.592;8.868;2023-02-28T04:23:19;6.03;;;2.90;;
6828;SDS011;17930;48.592;8.868;2023-02-28T04:25:45;3.45;;;2.55;;
6828;SDS011;17930;48.592;8.868;2023-02-28T04:28:12;4.40;;;2.70;;
6828;SDS011;17930;48.592;8.868;2023-02-28T04:30:39;4.03;;;2.60;;
6828;SDS011;17930;48.592;8.868;2023-02-28T04:33:05;3.38;;;2.20;;
6828;SDS011;17930;48.592;8.868;2023-02-28T04:35:32;5.47;;;3.00;;
6828;SDS011;17930;48.592;8.868;2023-02-28T04:37:59;5.63;;;2.92;;
6828;SDS011;17930;48.592;8.868;2023-02-28T04:40:27;8.15;;;3.40;;
6828;SDS011;17930;48.592;8.868;2023-02-28T04:42:53;6.95;;;3.92;;
6828;SDS011;17930;48.592;8.868;2023-02-28T04:45:20;4.25;;;2.63;;
6828;SDS011;17930;48.592;8.868;2023-02-28T04:47:47;4.20;;;2.88;;
6828;SDS011;17930;48.592;8.868;2023-02-28T04:50:14;5.18;;;2.67;;
6828;SDS011;17930;48.592;8.868;2023-02-28T04:52:41;3.78;;;2.63;;
6828;SDS011;17930;48.592;8.868;2023-02-28T04:55:07;4.65;;;2.75;;
6828;SDS011;17930;48.592;8.868;2023-02-28T04:57:36;5.30;;;2.47;;
6828;SDS011;17930;48.592;8.868;2023-02-28T05:00:03;3.67;;;2.60;;
6828;SDS011;17930;48.592;8.868;2023-02-28T05:02:37;3.70;;;2.63;;
6828;SDS011;17930;48.592;8.868;2023-02-28T05:05:04;4.55;;;3.00;;
6828;SDS011;17930;48.592;8.868;2023-02-28T05:07:31;5.80;;;3.08;;
6828;SDS011;17930;48.592;8.868;2023-02-28T05:09:57;4.43;;;2.45;;
6828;SDS011;17930;48.592;8.868;2023-02-28T05:12:24;5.40;;;3.40;;
6828;SDS011;17930;48.592;8.868;2023-02-28T05:14:52;4.38;;;2.65;;
6828;SDS011;17930;48.592;8.868;2023-02-28T05:17:19;5.50;;;3.40;;
6828;SDS011;17930;48.592;8.868;2023-02-28T05:19:46;7.32;;;4.00;;
6828;SDS011;17930;48.592;8.868;2023-02-28T05:22:13;5.43;;;3.15;;
6828;SDS011;17930;48.592;8.868;2023-02-28T05:24:41;5.30;;;3.13;;
6828;SDS011;17930;48.592;8.868;2023-02-28T05:27:08;6.32;;;3.17;;
6828;SDS011;17930;48.592;8.868;2023-02-28T05:29:35;4.90;;;2.97;;
6828;SDS011;17930;48.592;8.868;2023-02-28T05:32:09;5.35;;;3.40;;
6828;SDS011;17930;48.592;8.868;2023-02-28T05:34:36;10.35;;;4.95;;
6828;SDS011;17930;48.592;8.868;2023-02-28T05:37:03;5.18;;;3.20;;
6828;SDS011;17930;48.592;8.868;2023-02-28T05:39:30;7.13;;;4.72;;
6828;SDS011;17930;48.592;8.868;2023-02-28T05:41:56;5.85;;;3.90;;
6828;SDS011;17930;48.592;8.868;2023-02-28T05:44:23;7.03;;;4.35;;
6828;SDS011;17930;48.592;8.868;2023-02-28T05:46:50;5.80;;;3.63;;
6828;SDS011;17930;48.592;8.868;2023-02-28T05:49:18;5.97;;;3.50;;
6828;SDS011;17930;48.592;8.868;2023-02-28T05:51:45;4.82;;;3.30;;
6828;SDS011;17930;48.592;8.868;2023-02-28T05:54:11;9.38;;;3.50;;
6828;SDS011;17930;48.592;8.868;2023-02-28T05:56:38;4.60;;;3.25;;
6828;SDS011;17930;48.592;8.868;2023-02-28T05:59:05;6.28;;;3.50;;
6828;SDS011;17930;48.592;8.868;2023-02-28T06:01:33;6.47;;;2.95;;
6828;SDS011;17930;48.592;8.868;2023-02-28T06:04:06;5.97;;;3.95;;
6828;SDS011;17930;48.592;8.868;2023-02-28T06:06:36;6.25;;;3.88;;
6828;SDS011;17930;48.592;8.868;2023-02-28T06:09:04;5.68;;;3.58;;
6828;SDS011;17930;48.592;8.868;2023-02-28T06:11:31;6.53;;;3.70;;
6828;SDS011;17930;48.592;8.868;2023-02-28T06:13:59;6.15;;;3.58;;
6828;SDS011;17930;48.592;8.868;2023-02-28T06:16:30;9.80;;;4.15;;
6828;SDS011;17930;48.592;8.868;2023-02-28T06:18:59;9.32;;;4.45;;
6828;SDS011;17930;48.592;8.868;2023-02-28T06:21:28;5.55;;;3.60;;
6828;SDS011;17930;48.592;8.868;2023-02-28T06:23:56;6.00;;;3.80;;
6828;SDS011;17930;48.592;8.868;2023-02-28T06:26:24;7.68;;;4.15;;
6828;SDS011;17930;48.592;8.868;2023-02-28T06:28:51;7.78;;;4.43;;
6828;SDS011;17930;48.592;8.868;2023-02-28T06:31:18;7.38;;;4.30;;
6828;SDS011;17930;48.592;8.868;2023-02-28T06:33:48;6.90;;;4.38;;
6828;SDS011;17930;48.592;8.868;2023-02-28T06:36:57;10.60;;;4.63;;
6828;SDS011;17930;48.592;8.868;2023-02-28T06:39:28;7.55;;;3.75;;
6828;SDS011;17930;48.592;8.868;2023-02-28T06:41:55;10.30;;;4.43;;
6828;SDS011;17930;48.592;8.868;2023-02-28T06:44:22;9.15;;;4.63;;
6828;SDS011;17930;48.592;8.868;2023-02-28T06:46:50;7.53;;;4.22;;
6828;SDS011;17930;48.592;8.868;2023-02-28T06:49:17;7.07;;;3.97;;
6828;SDS011;17930;48.592;8.868;2023-02-28T06:51:46;10.20;;;5.53;;
6828;SDS011;17930;48.592;8.868;2023-02-28T06:54:13;6.93;;;4.60;;
6828;SDS011;17930;48.592;8.868;2023-02-28T06:56:41;8.90;;;4.40;;
6828;SDS011;17930;48.592;8.868;2023-02-28T06:59:08;8.90;;;4.72;;
6828;SDS011;17930;48.592;8.868;2023-02-28T07:01:34;7.00;;;4.50;;
6828;SDS011;17930;48.592;8.868;2023-02-28T07:04:02;7.97;;;5.00;;
6828;SDS011;17930;48.592;8.868;2023-02-28T07:06:32;7.07;;;5.20;;
6828;SDS011;17930;48.592;8.868;2023-02-28T07:08:59;7.75;;;5.22;;
6828;SDS011;17930;48.592;8.868;2023-02-28T07:11:27;9.00;;;4.35;;
6828;SDS011;17930;48.592;8.868;2023-02-28T07:13:55;8.30;;;4.47;;
6828;SDS011;17930;48.592;8.868;2023-02-28T07:16:26;7.35;;;4.03;;
6828;SDS011;17930;48.592;8.868;2023-02-28T07:18:53;9.75;;;4.55;;
6828;SDS011;17930;48.592;8.868;2023-02-28T07:21:23;8.13;;;4.50;;
6828;SDS011;17930;48.592;8.868;2023-02-28T07:23:50;7.43;;;4.22;;
6828;SDS011;17930;48.592;8.868;2023-02-28T07:26:18;9.75;;;4.28;;
6828;SDS011;17930;48.592;8.868;2023-02-28T07:28:47;10.88;;;4.60;;
6828;SDS011;17930;48.592;8.868;2023-02-28T07:31:16;10.13;;;4.55;;
6828;SDS011;17930;48.592;8.868;2023-02-28T07:33:43;7.30;;;4.20;;
6828;SDS011;17930;48.592;8.868;2023-02-28T07:36:11;9.82;;;3.97;;
6828;SDS011;17930;48.592;8.868;2023-02-28T07:38:41;10.45;;;4.43;;
6828;SDS011;17930;48.592;8.868;2023-02-28T07:41:08;8.40;;;4.53;;
6828;SDS011;17930;48.592;8.868;2023-02-28T07:43:35;9.98;;;4.65;;
6828;SDS011;17930;48.592;8.868;2023-02-28T07:46:03;7.38;;;4.22;;
6828;SDS011;17930;48.592;8.868;2023-02-28T07:48:32;9.23;;;4.68;;
6828;SDS011;17930;48.592;8.868;2023-02-28T07:50:59;6.53;;;4.43;;
6828;SDS011;17930;48.592;8.868;2023-02-28T07:53:31;7.93;;;4.20;;
6828;SDS011;17930;48.592;8.868;2023-02-28T07:55:59;8.18;;;4.63;;
6828;SDS011;17930;48.592;8.868;2023-02-28T07:58:26;7.03;;;4.38;;
6828;SDS011;17930;48.592;8.868;2023-02-28T08:00:54;8.05;;;4.97;;
6828;SDS011;17930;48.592;8.868;2023-02-28T08:03:23;9.70;;;5.35;;
6828;SDS011;17930;48.592;8.868;2023-02-28T08:05:52;9.68;;;4.68;;
6828;SDS011;17930;48.592;8.868;2023-02-28T08:08:24;9.68;;;5.10;;
6828;SDS011;17930;48.592;8.868;2023-02-28T08:10:54;8.57;;;4.47;;
6828;SDS011;17930;48.592;8.868;2023-02-28T08:13:21;7.30;;;4.40;;
6828;SDS011;17930;48.592;8.868;2023-02-28T08:15:52;8.52;;;4.95;;
6828;SDS011;17930;48.592;8.868;2023-02-28T08:18:19;10.05;;;4.90;;
6828;SDS011;17930;48.592;8.868;2023-02-28T08:20:46;9.90;;;5.00;;
6828;SDS011;17930;48.592;8.868;2023-02-28T08:23:14;12.10;;;4.55;;
6828;SDS011;17930;48.592;8.868;2023-02-28T08:25:41;5.53;;;3.88;;
6828;SDS011;17930;48.592;8.868;2023-02-28T08:28:08;7.18;;;4.60;;
6828;SDS011;17930;48.592;8.868;2023-02-28T08:30:35;9.40;;;5.30;;
6828;SDS011;17930;48.592;8.868;2023-02-28T08:33:02;8.63;;;5.43;;
6828;SDS011;17930;48.592;8.868;2023-02-28T08:35:28;13.85;;;5.03;;
6828;SDS011;17930;48.592;8.868;2023-02-28T08:37:55;9.95;;;4.93;;
6828;SDS011;17930;48.592;8.868;2023-02-28T08:40:23;9.15;;;5.30;;
6828;SDS011;17930;48.592;8.868;2023-02-28T08:42:50;7.70;;;5.07;;
6828;SDS011;17930;48.592;8.868;2023-02-28T08:45:16;12.20;;;4.63;;
6828;SDS011;17930;48.592;8.868;2023-02-28T08:47:43;8.05;;;4.95;;
6828;SDS011;17930;48.592;8.868;2023-02-28T08:50:10;7.93;;;4.90;;
6828;SDS011;17930;48.592;8.868;2023-02-28T08:52:41;7.95;;;4.60;;
6828;SDS011;17930;48.592;8.868;2023-02-28T08:55:09;13.38;;;5.68;;
6828;SDS011;17930;48.592;8.868;2023-02-28T08:57:37;8.63;;;5.35;;
6828;SDS011;17930;48.592;8.868;2023-02-28T09:00:04;9.85;;;4.88;;
6828;SDS011;17930;48.592;8.868;2023-02-28T09:02:33;8.45;;;5.18;;
6828;SDS011;17930;48.592;8.868;2023-02-28T09:04:59;6.43;;;3.40;;
6828;SDS011;17930;48.592;8.868;2023-02-28T09:07:26;11.45;;;4.72;;
6828;SDS011;17930;48.592;8.868;2023-02-28T09:09:53;8.98;;;5.07;;
6828;SDS011;17930;48.592;8.868;2023-02-28T09:12:20;10.40;;;5.32;;
6828;SDS011;17930;48.592;8.868;2023-02-28T09:14:48;6.50;;;4.40;;
6828;SDS011;17930;48.592;8.868;2023-02-28T09:17:16;9.20;;;5.63;;
6828;SDS011;17930;48.592;8.868;2023-02-28T09:19:43;8.65;;;4.93;;
6828;SDS011;17930;48.592;8.868;2023-02-28T09:22:10;8.98;;;5.03;;
6828;SDS011;17930;48.592;8.868;2023-02-28T09:24:37;9.80;;;4.72;;
6828;SDS011;17930;48.592;8.868;2023-02-28T09:27:04;9.13;;;5.43;;
6828;SDS011;17930;48.592;8.868;2023-02-28T09:29:32;8.77;;;4.25;;
6828;SDS011;17930;48.592;8.868;2023-02-28T09:32:01;9.80;;;5.60;;
6828;SDS011;17930;48.592;8.868;2023-02-28T09:34:30;7.68;;;4.57;;
6828;SDS011;17930;48.592;8.868;2023-02-28T09:36:57;9.82;;;5.32;;
6828;SDS011;17930;48.592;8.868;2023-02-28T09:39:24;9.35;;;5.68;;
6828;SDS011;17930;48.592;8.868;2023-02-28T09:41:52;9.73;;;4.80;;
6828;SDS011;17930;48.592;8.868;2023-02-28T09:44:21;8.85;;;4.43;;
6828;SDS011;17930;48.592;8.868;2023-02-28T09:46:52;9.88;;;5.63;;
6828;SDS011;17930;48.592;8.868;2023-02-28T09:49:24;10.43;;;5.57;;
6828;SDS011;17930;48.592;8.868;2023-02-28T09:51:56;11.38;;;6.35;;
6828;SDS011;17930;48.592;8.868;2023-02-28T09:54:27;8.60;;;5.55;;
6828;SDS011;17930;48.592;8.868;2023-02-28T09:56:56;6.97;;;4.68;;
6828;SDS011;17930;48.592;8.868;2023-02-28T09:59:31;9.10;;;5.10;;
6828;SDS011;17930;48.592;8.868;2023-02-28T10:02:10;11.48;;;7.65;;
6828;SDS011;17930;48.592;8.868;2023-02-28T10:04:46;11.90;;;5.03;;
6828;SDS011;17930;48.592;8.868;2023-02-28T10:07:23;9.57;;;5.50;;
6828;SDS011;17930;48.592;8.868;2023-02-28T10:10:04;7.78;;;5.43;;
6828;SDS011;17930;48.592;8.868;2023-02-28T10:12:44;7.82;;;5.25;;
6828;SDS011;17930;48.592;8.868;2023-02-28T10:15:13;10.23;;;5.28;;
6828;SDS011;17930;48.592;8.868;2023-02-28T10:17:42;8.27;;;5.57;;
6828;SDS011;17930;48.592;8.868;2023-02-28T10:20:14;9.88;;;4.95;;
6828;SDS011;17930;48.592;8.868;2023-02-28T10:22:49;9.23;;;5.10;;
6828;SDS011;17930;48.592;8.868;2023-02-28T10:25:20;11.25;;;5.20;;
6828;SDS011;17930;48.592;8.868;2023-02-28T10:27:49;8.35;;;5.10;;
6828;SDS011;17930;48.592;8.868;2023-02-28T10:30:19;9.13;;;4.97;;
6828;SDS011;17930;48.592;8.868;2023-02-28T10:32:47;8.13;;;4.80;;
6828;SDS011;17930;48.592;8.868;2023-02-28T10:35:20;6.35;;;4.55;;
6828;SDS011;17930;48.592;8.868;2023-02-28T10:37:49;10.05;;;6.25;;
6828;SDS011;17930;48.592;8.868;2023-02-28T10:40:28;12.52;;;5.80;;
6828;SDS011;17930;48.592;8.868;2023-02-28T10:42:58;10.68;;;5.95;;
6828;SDS011;17930;48.592;8.868;2023-02-28T10:45:26;10.15;;;5.60;;
6828;SDS011;17930;48.592;8.868;2023-02-28T10:47:55;9.57;;;5.75;;
6828;SDS011;17930;48.592;8.868;2023-02-28T10:50:28;8.98;;;5.10;;
6828;SDS011;17930;48.592;8.868;2023-02-28T10:53:07;7.13;;;4.95;;
6828;SDS011;17930;48.592;8.868;2023-02-28T10:55:42;9.43;;;5.57;;
6828;SDS011;17930;48.592;8.868;2023-02-28T10:58:22;6.05;;;4.50;;
6828;SDS011;17930;48.592;8.868;2023-02-28T11:00:49;12.23;;;5.97;;
6828;SDS011;17930;48.592;8.868;2023-02-28T11:03:24;10.23;;;5.60;;
6828;SDS011;17930;48.592;8.868;2023-02-28T11:05:57;9.10;;;5.18;;
6828;SDS011;17930;48.592;8.868;2023-02-28T11:08:24;8.57;;;5.40;;
6828;SDS011;17930;48.592;8.868;2023-02-28T11:10:54;10.20;;;5.50;;
6828;SDS011;17930;48.592;8.868;2023-02-28T11:13:24;9.38;;;5.95;;
6828;SDS011;17930;48.592;8.868;2023-02-28T11:15:58;16.60;;;7.35;;
6828;SDS011;17930;48.592;8.868;2023-02-28T11:18:29;11.07;;;5.05;;
6828;SDS011;17930;48.592;8.868;2023-02-28T11:20:59;12.02;;;5.78;;
6828;SDS011;17930;48.592;8.868;2023-02-28T11:23:30;8.07;;;5.00;;
6828;SDS011;17930;48.592;8.868;2023-02-28T11:26:01;12.98;;;5.47;;
6828;SDS011;17930;48.592;8.868;2023-02-28T11:28:30;10.38;;;5.43;;
6828;SDS011;17930;48.592;8.868;2023-02-28T11:31:03;8.73;;;5.30;;
6828;SDS011;17930;48.592;8.868;2023-02-28T11:33:40;12.38;;;6.03;;
6828;SDS011;17930;48.592;8.868;2023-02-28T11:36:12;13.15;;;6.78;;
6828;SDS011;17930;48.592;8.868;2023-02-28T11:38:42;13.55;;;7.22;;
6828;SDS011;17930;48.592;8.868;2023-02-28T11:41:16;11.80;;;6.30;;
6828;SDS011;17930;48.592;8.868;2023-02-28T11:44:12;7.82;;;5.25;;
6828;SDS011;17930;48.592;8.868;2023-02-28T11:46:49;21.27;;;9.55;;
6828;SDS011;17930;48.592;8.868;2023-02-28T11:49:30;9.30;;;5.63;;
6828;SDS011;17930;48.592;8.868;2023-02-28T11:52:14;9.98;;;5.72;;
6828;SDS011;17930;48.592;8.868;2023-02-28T11:54:51;7.07;;;4.65;;
6828;SDS011;17930;48.592;8.868;2023-02-28T11:57:36;6.85;;;4.50;;
6828;SDS011;17930;48.592;8.868;2023-02-28T12:00:24;9.80;;;5.30;;
6828;SDS011;17930;48.592;8.868;2023-02-28T12:03:03;8.65;;;5.47;;
6828;SDS011;17930;48.592;8.868;2023-02-28T12:05:43;9.93;;;4.75;;
6828;SDS011;17930;48.592;8.868;2023-02-28T12:08:20;8.05;;;5.32;;
6828;SDS011;17930;48.592;8.868;2023-02-28T12:10:57;10.55;;;5.82;;
6828;SDS011;17930;48.592;8.868;2023-02-28T12:13:34;10.48;;;5.72;;
6828;SDS011;17930;48.592;8.868;2023-02-28T12:16:29;7.97;;;5.45;;
6828;SDS011;17930;48.592;8.868;2023-02-28T12:19:21;7.63;;;5.55;;
6828;SDS011;17930;48.592;8.868;2023-02-28T12:22:03;10.05;;;5.32;;
6828;SDS011;17930;48.592;8.868;2023-02-28T12:24:43;6.77;;;4.90;;
6828;SDS011;17930;48.592;8.868;2023-02-28T12:27:20;10.20;;;4.47;;
6828;SDS011;17930;48.592;8.868;2023-02-28T12:29:51;7.67;;;5.50;;
6828;SDS011;17930;48.592;8.868;2023-02-28T12:32:23;9.07;;;4.90;;
6828;SDS011;17930;48.592;8.868;2023-02-28T12:34:57;10.07;;;4.47;;
6828;SDS011;17930;48.592;8.868;2023-02-28T12:37:29;7.07;;;4.75;;
6828;SDS011;17930;48.592;8.868;2023-02-28T12:40:09;8.07;;;4.95;;
6828;SDS011;17930;48.592;8.868;2023-02-28T12:42:39;7.43;;;4.87;;
6828;SDS011;17930;48.592;8.868;2023-02-28T12:45:10;8.00;;;4.60;;
6828;SDS011;17930;48.592;8.868;2023-02-28T12:47:42;8.07;;;5.00;;
6828;SDS011;17930;48.592;8.868;2023-02-28T12:50:10;13.57;;;5.33;;
6828;SDS011;17930;48.592;8.868;2023-02-28T12:52:41;8.73;;;4.70;;
6828;SDS011;17930;48.592;8.868;2023-02-28T12:55:20;8.17;;;4.57;;
6828;SDS011;17930;48.592;8.868;2023-02-28T12:57:55;9.30;;;5.33;;
6828;SDS011;17930;48.592;8.868;2023-02-28T13:00:32;7.75;;;5.05;;
6828;SDS011;17930;48.592;8.868;2023-02-28T13:03:06;7.88;;;5.05;;
6828;SDS011;17930;48.592;8.868;2023-02-28T13:06:00;6.65;;;4.55;;
6828;SDS011;17930;48.592;8.868;2023-02-28T13:08:49;8.17;;;4.73;;
6828;SDS011;17930;48.592;8.868;2023-02-28T13:11:38;9.27;;;5.40;;
6828;SDS011;17930;48.592;8.868;2023-02-28T13:14:16;6.30;;;4.50;;
6828;SDS011;17930;48.592;8.868;2023-02-28T13:16:54;9.23;;;5.20;;
6828;SDS011;17930;48.592;8.868;2023-02-28T13:19:27;6.40;;;4.77;;
6828;SDS011;17930;48.592;8.868;2023-02-28T13:21:56;10.53;;;4.90;;
6828;SDS011;17930;48.592;8.868;2023-02-28T13:24:38;7.37;;;4.47;;
6828;SDS011;17930;48.592;8.868;2023-02-28T13:27:19;6.67;;;4.70;;
6828;SDS011;17930;48.592;8.868;2023-02-28T13:29:49;8.63;;;5.00;;
6828;SDS011;17930;48.592;8.868;2023-02-28T13:32:18;6.83;;;5.03;;
6828;SDS011;17930;48.592;8.868;2023-02-28T13:38:08;6.97;;;4.87;;
6828;SDS011;17930;48.592;8.868;2023-02-28T13:40:41;10.47;;;5.37;;
6828;SDS011;17930;48.592;8.868;2023-02-28T13:43:09;9.73;;;5.23;;
6828;SDS011;17930;48.592;8.868;2023-02-28T13:45:36;6.93;;;4.80;;
6828;SDS011;17930;48.592;8.868;2023-02-28T13:48:05;9.40;;;5.27;;
6828;SDS011;17930;48.592;8.868;2023-02-28T13:50:43;8.00;;;5.10;;
6828;SDS011;17930;48.592;8.868;2023-02-28T13:56:09;8.07;;;5.20;;
6828;SDS011;17930;48.592;8.868;2023-02-28T13:58:53;7.57;;;5.10;;
6828;SDS011;17930;48.592;8.868;2023-02-28T14:01:24;9.07;;;5.00;;
6828;SDS011;17930;48.592;8.868;2023-02-28T14:04:30;7.87;;;5.30;;
6828;SDS011;17930;48.592;8.868;2023-02-28T14:07:18;8.77;;;5.03;;
6828;SDS011;17930;48.592;8.868;2023-02-28T14:09:51;9.33;;;5.03;;
6828;SDS011;17930;48.592;8.868;2023-02-28T14:21:01;13.03;;;5.07;;
6828;SDS011;17930;48.592;8.868;2023-02-28T14:26:46;13.40;;;7.07;;
6828;SDS011;17930;48.592;8.868;2023-02-28T14:29:29;12.13;;;6.13;;
6828;SDS011;17930;48.592;8.868;2023-02-28T14:32:13;8.07;;;5.10;;
6828;SDS011;17930;48.592;8.868;2023-02-28T14:34:52;7.37;;;5.00;;
6828;SDS011;17930;48.592;8.868;2023-02-28T14:37:26;7.17;;;4.83;;
6828;SDS011;17930;48.592;8.868;2023-02-28T14:39:55;7.63;;;4.83;;
6828;SDS011;17930;48.592;8.868;2023-02-28T14:42:30;7.40;;;4.60;;
6828;SDS011;17930;48.592;8.868;2023-02-28T14:44:59;10.13;;;5.67;;
6828;SDS011;17930;48.592;8.868;2023-02-28T14:47:28;8.30;;;5.33;;
6828;SDS011;17930;48.592;8.868;2023-02-28T14:49:58;8.37;;;5.20;;
6828;SDS011;17930;48.592;8.868;2023-02-28T14:52:30;10.97;;;6.37;;
6828;SDS011;17930;48.592;8.868;2023-02-28T14:55:01;8.93;;;5.13;;
6828;SDS011;17930;48.592;8.868;2023-02-28T14:57:31;8.93;;;5.50;;
6828;SDS011;17930;48.592;8.868;2023-02-28T15:00:00;8.97;;;5.60;;
6828;SDS011;17930;48.592;8.868;2023-02-28T15:02:38;6.97;;;4.57;;
6828;SDS011;17930;48.592;8.868;2023-02-28T15:05:24;8.20;;;4.97;;
6828;SDS011;17930;48.592;8.868;2023-02-28T15:08:09;8.63;;;5.30;;
6828;SDS011;17930;48.592;8.868;2023-02-28T15:10:39;6.40;;;4.43;;
6828;SDS011;17930;48.592;8.868;2023-02-28T15:13:11;8.93;;;6.07;;
6828;SDS011;17930;48.592;8.868;2023-02-28T15:15:41;8.97;;;6.10;;
6828;SDS011;17930;48.592;8.868;2023-02-28T15:18:15;9.30;;;5.53;;
6828;SDS011;17930;48.592;8.868;2023-02-28T15:20:48;8.17;;;5.63;;
6828;SDS011;17930;48.592;8.868;2023-02-28T15:23:17;9.97;;;5.23;;
6828;SDS011;17930;48.592;8.868;2023-02-28T15:25:46;8.90;;;5.27;;
6828;SDS011;17930;48.592;8.868;2023-02-28T15:28:14;9.10;;;5.43;;
6828;SDS011;17930;48.592;8.868;2023-02-28T15:30:50;7.53;;;5.20;;
6828;SDS011;17930;48.592;8.868;2023-02-28T15:33:21;7.43;;;4.80;;
6828;SDS011;17930;48.592;8.868;2023-02-28T15:35:50;9.07;;;4.97;;
6828;SDS011;17930;48.592;8.868;2023-02-28T15:38:18;7.73;;;4.97;;
6828;SDS011;17930;48.592;8.868;2023-02-28T15:40:51;9.37;;;5.40;;
6828;SDS011;17930;48.592;8.868;2023-02-28T15:43:26;8.97;;;5.43;;
6828;SDS011;17930;48.592;8.868;2023-02-28T15:45:55;7.00;;;4.83;;
6828;SDS011;17930;48.592;8.868;2023-02-28T15:48:28;8.57;;;5.30;;